Salem, IL

10:00 PM CDT on March 24, 2017 (GMT -0500)
Salem-Leckrone

Weather History for KSLO - October, 2014

Change the Weather History Date:

Saturday, October 4, 2014

  Actual Average Record
Temperature  
Mean Temperature 48 °F -  
Max Temperature 55 °F 74 °F 89 °F (1967)
Min Temperature 39 °F 50 °F 31 °F (1968)
Degree Days  
Heating Degree Days 18    
Moisture  
Dew Point 36 °F    
Average Humidity 67    
Maximum Humidity 94    
Minimum Humidity 42    
Precipitation  
Precipitation 0.00 in - - ()
Sea Level Pressure  
Sea Level Pressure 29.94 in    
Wind  
Wind Speed 9 mph (West)    
Max Wind Speed 24 mph    
Max Gust Speed 31 mph    
Visibility 10 miles    
Events      
Averages and records for this station are not official NWS values.
T = Trace of Precipitation, MM = Missing Value Source: NWS Daily Summary

Daily Weather History Graph

Daily Weather History Graph

Search for Another Location

Airport or City:

Trip Planner

Search our weather history database for the weather conditions in past years. The results will help you decide how hot, cold, wet, or windy it might be!

Date:

Astronomy

Oct. 04, 2014 Rise Set
Actual Time 6:54 AM CDT 6:33 PM CDT
Civil Twilight 6:27 AM CDT 7:00 PM CDT
Nautical Twilight 5:57 AM CDT 7:31 PM CDT
Astronomical Twilight 5:26 AM CDT 8:02 PM CDT
Moon 4:08 PM CDT (10/4) 2:24 AM CDT (10/4)
Length of Visible Light 12h 32m
Length of Day
11h 39m
Waxing Gibbous, 81% of the Moon is Illuminated
Oct 4
Waxing Gibbous
Oct 8
Full
Oct 15
Last Quarter
Oct 23
New
Oct 30
First Quarter

Hourly Weather History & Observations

Time (CDT) Temp. Windchill Dew Point Humidity Pressure Visibility Wind Dir Wind Speed Gust Speed Precip Events Conditions
12:15 AM 45.7 °F 42.7 °F 38.1 °F 75% 29.99 in 10.0 mi West 5.8 mph - N/A   Clear
12:35 AM 44.4 °F 42.0 °F 38.3 °F 79% 29.98 in 10.0 mi WSW 4.6 mph - N/A   Scattered Clouds
12:55 AM 42.8 °F 39.3 °F 38.5 °F 85% 29.98 in 10.0 mi WSW 5.8 mph - N/A   Scattered Clouds
1:15 AM 42.6 °F 39.9 °F 38.3 °F 85% 29.97 in 10.0 mi WSW 4.6 mph - N/A   Clear
1:35 AM 42.8 °F 39.3 °F 38.3 °F 84% 29.98 in 10.0 mi SW 5.8 mph - N/A   Clear
1:55 AM 43.2 °F 38.4 °F 37.9 °F 82% 29.97 in 10.0 mi SW 8.1 mph - N/A   Clear
2:15 AM 45.0 °F 40.1 °F 38.1 °F 77% 29.97 in 10.0 mi WSW 9.2 mph - N/A   Mostly Cloudy
2:35 AM 45.7 °F 41.0 °F 37.9 °F 74% 29.96 in 10.0 mi WSW 9.2 mph - N/A   Overcast
2:55 AM 45.9 °F 40.8 °F 37.4 °F 72% 29.96 in 10.0 mi WSW 10.4 mph - N/A   Overcast
3:15 AM 45.5 °F 40.3 °F 37.9 °F 75% 29.96 in 10.0 mi WSW 10.4 mph - N/A   Overcast
3:35 AM 45.1 °F 41.4 °F 37.4 °F 74% 29.96 in 10.0 mi WSW 6.9 mph - N/A   Overcast
3:55 AM 44.6 °F 39.7 °F 37.6 °F 76% 29.96 in 10.0 mi West 9.2 mph - N/A   Mostly Cloudy
4:15 AM 43.7 °F 40.3 °F 37.4 °F 78% 29.95 in 10.0 mi West 5.8 mph - N/A   Scattered Clouds
4:35 AM 42.6 °F 39.0 °F 37.4 °F 82% 29.95 in 10.0 mi WSW 5.8 mph - N/A   Clear
4:55 AM 43.2 °F 38.4 °F 37.8 °F 81% 29.94 in 10.0 mi SW 8.1 mph - N/A   Clear
5:15 AM 43.0 °F 38.8 °F 38.3 °F 84% 29.93 in 10.0 mi SW 6.9 mph - N/A   Clear
5:35 AM 43.0 °F 37.7 °F 38.5 °F 84% 29.93 in 10.0 mi SW 9.2 mph - N/A   Clear
5:55 AM 43.2 °F 38.4 °F 38.8 °F 85% 29.93 in 10.0 mi SW 8.1 mph - N/A   Scattered Clouds
6:15 AM 43.7 °F 38.1 °F 39.0 °F 84% 29.93 in 10.0 mi SW 10.4 mph - N/A   Overcast
6:35 AM 43.2 °F 38.4 °F 39.2 °F 86% 29.93 in 10.0 mi SW 8.1 mph - N/A   Overcast
6:55 AM 43.2 °F 39.0 °F 39.4 °F 86% 29.93 in 10.0 mi WSW 6.9 mph - N/A   Overcast
7:15 AM 43.3 °F 38.1 °F 39.2 °F 85% 29.93 in 10.0 mi WSW 9.2 mph - N/A   Mostly Cloudy
7:35 AM 43.9 °F 38.3 °F 39.2 °F 84% 29.93 in 10.0 mi West 10.4 mph 17.3 mph N/A   Scattered Clouds
7:55 AM 45.0 °F 39.7 °F 38.1 °F 77% 29.94 in 10.0 mi WNW 10.4 mph 20.7 mph N/A   Clear
8:15 AM 45.7 °F 40.6 °F 37.8 °F 74% 29.94 in 10.0 mi WNW 10.4 mph 17.3 mph N/A   Clear
8:35 AM 46.0 °F 39.9 °F 35.8 °F 67% 29.94 in 10.0 mi WNW 13.8 mph 19.6 mph N/A   Clear
8:55 AM 46.2 °F 40.1 °F 33.6 °F 61% 29.95 in 10.0 mi WNW 13.8 mph 18.4 mph N/A   Clear
9:15 AM 46.4 °F 39.5 °F 31.1 °F 55% 29.95 in 10.0 mi WNW 17.3 mph 23.0 mph N/A   Clear
9:35 AM 47.5 °F - 31.5 °F 54% 29.95 in 10.0 mi West 18.4 mph 25.3 mph N/A   Clear
9:55 AM 48.0 °F - 32.0 °F 54% 29.95 in 10.0 mi West 16.1 mph 23.0 mph N/A   Clear
10:15 AM 48.4 °F - 31.3 °F 52% 29.95 in 10.0 mi West 17.3 mph 24.2 mph N/A   Clear
10:35 AM 49.5 °F - 31.6 °F 50% 29.95 in 10.0 mi West 18.4 mph 23.0 mph N/A   Clear
10:55 AM 49.6 °F - 32.7 °F 52% 29.95 in 10.0 mi West 17.3 mph 31.1 mph N/A   Scattered Clouds
11:15 AM 49.8 °F - 33.1 °F 53% 29.95 in 10.0 mi WSW 17.3 mph 27.6 mph N/A   Scattered Clouds
11:35 AM 50.9 °F - 32.5 °F 49% 29.95 in 10.0 mi West 21.9 mph 26.5 mph N/A   Scattered Clouds
11:55 AM 51.1 °F - 32.4 °F 49% 29.94 in 10.0 mi West 20.7 mph 25.3 mph N/A   Clear
12:15 PM 51.4 °F - 32.0 °F 47% 29.94 in 10.0 mi West 21.9 mph 29.9 mph N/A   Clear
12:35 PM 52.5 °F - 32.4 °F 46% 29.94 in 10.0 mi West 17.3 mph 28.8 mph N/A   Clear
12:55 PM 53.6 °F - 33.1 °F 46% 29.93 in 10.0 mi WSW 21.9 mph 29.9 mph N/A   Clear
1:15 PM 53.6 °F - 32.4 °F 44% 29.93 in 10.0 mi West 20.7 mph 28.8 mph N/A   Clear
1:35 PM 53.6 °F - 32.0 °F 44% 29.92 in 10.0 mi West 24.2 mph 29.9 mph N/A   Clear
1:55 PM 53.8 °F - 32.7 °F 45% 29.92 in 10.0 mi WSW 20.7 mph 26.5 mph N/A   Clear
2:15 PM 54.5 °F - 32.4 °F 43% 29.92 in 10.0 mi West 19.6 mph 28.8 mph N/A   Clear
2:35 PM 54.7 °F - 32.2 °F 42% 29.93 in 10.0 mi West 17.3 mph 27.6 mph N/A   Clear
2:55 PM 55.4 °F - 32.7 °F 42% 29.93 in 10.0 mi West 18.4 mph 26.5 mph N/A   Clear
3:15 PM 55.0 °F - 32.2 °F 42% 29.93 in 10.0 mi WNW 20.7 mph 27.6 mph N/A   Clear
3:35 PM 54.7 °F - 32.5 °F 43% 29.92 in 10.0 mi West 19.6 mph 25.3 mph N/A   Clear
3:55 PM 54.7 °F - 32.2 °F 42% 29.92 in 10.0 mi West 10.4 mph 23.0 mph N/A   Clear
4:15 PM 55.0 °F - 32.5 °F 43% 29.92 in 10.0 mi West 17.3 mph 21.9 mph N/A   Clear
4:35 PM 54.7 °F - 32.4 °F 43% 29.93 in 10.0 mi West 15.0 mph 24.2 mph N/A   Scattered Clouds
4:55 PM 54.3 °F - 33.4 °F 45% 29.94 in 10.0 mi WNW 11.5 mph - N/A   Scattered Clouds
5:15 PM 53.8 °F - 33.6 °F 46% 29.95 in 10.0 mi West 9.2 mph - N/A   Scattered Clouds
5:35 PM 52.7 °F - 32.5 °F 46% 29.94 in 10.0 mi WNW 12.7 mph 21.9 mph N/A   Scattered Clouds
5:55 PM 52.7 °F - 32.4 °F 46% 29.94 in 10.0 mi WNW 6.9 mph - N/A   Scattered Clouds
6:15 PM 51.8 °F - 34.0 °F 51% 29.93 in 10.0 mi West 8.1 mph - N/A   Scattered Clouds
6:35 PM 49.6 °F - 35.2 °F 58% 29.93 in 10.0 mi West 4.6 mph - N/A   Clear
6:55 PM 48.2 °F - 35.4 °F 61% 29.93 in 10.0 mi Calm Calm - N/A   Clear
7:15 PM 46.2 °F 45.0 °F 36.0 °F 67% 29.93 in 10.0 mi WSW 3.5 mph - N/A   Clear
7:35 PM 46.0 °F - 35.4 °F 66% 29.92 in 10.0 mi Calm Calm - N/A   Clear
7:55 PM 44.4 °F - 37.0 °F 75% 29.92 in 10.0 mi Calm Calm - N/A   Clear
8:15 PM 43.7 °F - 37.4 °F 78% 29.93 in 10.0 mi Calm Calm - N/A   Clear
8:35 PM 42.8 °F - 37.4 °F 81% 29.93 in 10.0 mi Calm Calm - N/A   Clear
8:55 PM 42.1 °F - 37.8 °F 85% 29.93 in 10.0 mi Calm Calm - N/A   Clear
9:15 PM 41.4 °F - 38.3 °F 89% 29.93 in 10.0 mi Calm Calm - N/A   Clear
9:35 PM 41.0 °F - 37.4 °F 87% 29.93 in 10.0 mi Calm Calm - N/A   Clear
9:55 PM 40.1 °F - 38.1 °F 93% 29.93 in 10.0 mi Calm Calm - N/A   Clear
10:15 PM 40.5 °F 38.4 °F 37.6 °F 89% 29.93 in 10.0 mi South 3.5 mph - N/A   Clear
10:35 PM 40.5 °F - 38.1 °F 91% 29.93 in 10.0 mi Calm Calm - N/A   Clear
10:55 PM 41.0 °F - 39.0 °F 93% 29.93 in 10.0 mi Calm Calm - N/A   Clear
11:15 PM 40.1 °F - 38.3 °F 93% 29.92 in 10.0 mi Calm Calm - N/A   Clear
11:35 PM 40.1 °F - 37.2 °F 89% 29.92 in 10.0 mi Calm Calm - N/A   Clear
11:55 PM 39.6 °F - 37.9 °F 94% 29.91 in 10.0 mi Calm Calm - N/A   Clear